Main page
METAR-TAF:

METAR-TAF

Airports :

Port of Spain, Trinidad, Trinidad and Tobago

Piarco International Airport

latitude: 10-37N, longitude: 061-21W, elevation: 12 m

Current weather observation

The report was made 23 minutes ago, at 01:00 UTC
Wind 8 kt from the East
Temperature 26°C
Humidity 84%
Pressure 1012 hPa
Visibility 10 km or more
Few clouds at a height of 1600 ft

METAR: TTPP 290100Z 10008KT 9999 FEW016 26/23 Q1012 NOSIG

Time: 21:23 (01:23 UTC)

Forecast

The report was made 3 hours and 23 minutes ago, at 22:00 UTC
Forecast valid from 29 at 00 UTC to 29 at 24 UTC
Wind 5 kt from the East
Visibility 10 km or more
Few clouds at a height of 1600 ft
Becoming
from 29 at 12 UTC to 29 at 14 UTC
Wind 15 kt from the East/Southeast
Scattered clouds at a height of 2000 ft

TAF: TTPP 282200Z 2900/2924 09005KT 9999 FEW016 BECMG 2912/2914 11015KT SCT020

Weather observations and forecasts of more than 4000 airports (METAR and TAF reports).

The available stations are represented by yellow and red dots on the map.

Hover mouse over dot to see the name of the station.

Then click to see weather observations and forecasts.

To change the map : click on the green buttons with a black cross to zoom in, on the green button with a dash to zoom out, or on the green arrows for adjacent maps.


METAR-TAF: